Time;durP1;ratioP1;P1;durP2;ratioP2;P2;SDS_P1;SDS_P2;PMS_P1;PMS_P2;Temp;Humidity;BMP_temperature;BMP_pressure;BME280_temperature;BME280_humidity;BME280_pressure;Samples;Min_cycle;Max_cycle;Signal;HPM_P1;HPM_P2
2023/02/02 00:01:12;;;;;;;0.80;0.80;;;-7.60;99.90;;;;;;5076111;28;20617;-73
2023/02/02 00:03:38;;;;;;;0.90;0.90;;;-7.70;99.90;;;;;;5094015;28;20227;-72
2023/02/02 00:06:04;;;;;;;0.90;0.90;;;-7.70;99.90;;;;;;5072662;28;20231;-73
2023/02/02 00:08:30;;;;;;;0.80;0.80;;;-7.70;99.90;;;;;;5072694;28;20261;-72
2023/02/02 00:10:56;;;;;;;0.80;0.80;;;-7.70;99.90;;;;;;5072772;28;20671;-72
2023/02/02 00:13:22;;;;;;;0.80;0.80;;;-7.70;99.90;;;;;;5073612;28;20216;-73
2023/02/02 00:15:47;;;;;;;0.90;0.90;;;-7.60;99.90;;;;;;5073556;28;20685;-71
2023/02/02 00:18:13;;;;;;;0.90;0.90;;;-7.50;99.90;;;;;;5073673;28;20203;-73
2023/02/02 00:20:39;;;;;;;0.80;0.80;;;-7.50;99.90;;;;;;5072152;28;20205;-73
2023/02/02 00:23:04;;;;;;;0.83;0.83;;;-7.50;99.90;;;;;;5072154;28;20200;-70
2023/02/02 00:25:31;;;;;;;0.90;0.90;;;-7.50;99.90;;;;;;5073512;28;20208;-71
2023/02/02 00:27:57;;;;;;;1.00;1.00;;;-7.40;99.90;;;;;;5073519;28;20197;-70
2023/02/02 00:30:23;;;;;;;0.87;0.87;;;-7.40;99.90;;;;;;5071790;28;20643;-72
2023/02/02 00:32:51;;;;;;;0.83;0.83;;;-7.40;99.90;;;;;;5073432;28;20279;-72
2023/02/02 00:35:16;;;;;;;0.87;0.87;;;-7.40;99.90;;;;;;5073490;28;20720;-72
2023/02/02 00:37:42;;;;;;;0.80;0.80;;;-7.40;99.90;;;;;;5071978;28;20204;-73
2023/02/02 00:40:09;;;;;;;0.80;0.80;;;-7.40;99.90;;;;;;5073390;28;20196;-72
2023/02/02 00:42:35;;;;;;;0.90;0.90;;;-7.40;99.90;;;;;;5073105;28;20200;-74
2023/02/02 00:45:16;;;;;;;0.93;0.93;;;-7.40;99.90;;;;;;5073420;28;20208;-78
2023/02/02 00:47:46;;;;;;;0.80;0.80;;;-7.40;99.90;;;;;;5071707;28;20199;-77
2023/02/02 00:50:15;;;;;;;1.00;1.00;;;-7.30;99.90;;;;;;5073479;28;20558;-76
2023/02/02 00:52:41;;;;;;;0.90;0.90;;;-7.30;99.90;;;;;;5073179;28;20219;-74
2023/02/02 00:55:07;;;;;;;0.77;0.77;;;-7.30;99.90;;;;;;5073272;28;20287;-73
2023/02/02 00:57:33;;;;;;;0.80;0.80;;;-7.20;99.90;;;;;;5071333;28;20228;-72
2023/02/02 00:59:58;;;;;;;0.90;0.90;;;-7.20;99.90;;;;;;5071038;28;20235;-73
2023/02/02 01:02:24;;;;;;;0.90;0.90;;;-7.30;99.90;;;;;;5072708;28;20300;-72
2023/02/02 01:04:51;;;;;;;0.77;0.77;;;-7.30;99.90;;;;;;5077464;28;20746;-73
2023/02/02 01:07:17;;;;;;;0.80;0.80;;;-7.20;99.90;;;;;;5093243;28;20196;-72
2023/02/02 01:09:42;;;;;;;0.80;0.80;;;-7.30;99.90;;;;;;5092936;28;20604;-72
2023/02/02 01:12:08;;;;;;;0.77;0.77;;;-7.20;99.90;;;;;;5075125;28;20226;-73
2023/02/02 01:14:34;;;;;;;0.87;0.87;;;-7.20;99.90;;;;;;5093163;28;20566;-73
2023/02/02 01:16:59;;;;;;;0.80;0.80;;;-7.20;99.90;;;;;;5092714;28;20273;-72
2023/02/02 01:19:25;;;;;;;0.90;0.90;;;-7.20;99.90;;;;;;5074852;28;20253;-72
2023/02/02 01:21:51;;;;;;;0.90;0.90;;;-7.10;99.90;;;;;;5093277;28;20188;-72
2023/02/02 01:24:17;;;;;;;1.13;1.13;;;-7.00;99.90;;;;;;5093354;28;20265;-73
2023/02/02 01:26:42;;;;;;;0.70;0.70;;;-7.00;99.90;;;;;;5075028;28;20282;-72
2023/02/02 01:29:08;;;;;;;0.80;0.80;;;-7.00;99.90;;;;;;5092944;28;20192;-72
2023/02/02 01:31:34;;;;;;;0.90;0.90;;;-6.90;99.90;;;;;;5092979;28;20192;-73
2023/02/02 01:33:59;;;;;;;0.80;0.80;;;-6.90;99.90;;;;;;5093015;28;20203;-73
2023/02/02 01:36:25;;;;;;;0.80;0.80;;;-6.80;99.90;;;;;;5092957;28;20282;-74
2023/02/02 01:38:51;;;;;;;0.90;0.90;;;-6.80;99.90;;;;;;5093198;28;20196;-73
2023/02/02 01:41:20;;;;;;;0.90;0.90;;;-6.70;99.90;;;;;;5074871;28;20278;-73
2023/02/02 01:43:46;;;;;;;0.80;0.80;;;-6.70;99.90;;;;;;5074892;28;20222;-72
2023/02/02 01:46:11;;;;;;;0.90;0.90;;;-6.70;99.90;;;;;;5092635;28;20196;-72
2023/02/02 01:48:39;;;;;;;0.83;0.83;;;-6.80;99.90;;;;;;5092648;28;20607;-72
2023/02/02 01:51:08;;;;;;;0.90;0.90;;;-6.90;99.90;;;;;;5090080;28;20208;-71
2023/02/02 01:53:35;;;;;;;0.87;0.87;;;-7.00;99.90;;;;;;5074306;28;20574;-72
2023/02/02 01:56:03;;;;;;;0.70;0.70;;;-6.90;99.90;;;;;;5092827;28;20200;-72
2023/02/02 01:58:33;;;;;;;0.83;0.83;;;-7.00;99.90;;;;;;5092494;28;20199;-72
2023/02/02 02:00:59;;;;;;;0.70;0.70;;;-6.90;99.90;;;;;;5093312;28;20590;-75
2023/02/02 02:03:29;;;;;;;0.80;0.80;;;-6.90;99.90;;;;;;5106225;22;20224;-71
2023/02/02 02:06:04;;;;;;;0.80;0.80;;;-6.80;99.90;;;;;;5092572;28;20195;-71
2023/02/02 02:08:56;;;;;;;0.87;0.87;;;-6.80;99.90;;;;;;5092632;28;20207;-71
2023/02/02 02:11:23;;;;;;;0.80;0.80;;;-6.80;99.90;;;;;;5094048;28;20223;-72
2023/02/02 02:16:35;;;;;;;0.80;0.80;;;-6.80;99.90;;;;;;5076245;28;20199;-72
2023/02/02 02:19:12;;;;;;;0.73;0.73;;;-6.80;99.90;;;;;;5076180;28;20197;-71
2023/02/02 02:28:22;;;;;;;0.90;0.90;;;-7.00;99.90;;;;;;5076184;28;20208;-70
2023/02/02 02:30:54;;;;;;;0.73;0.73;;;-7.00;99.90;;;;;;5074456;28;20302;-70
2023/02/02 02:33:31;;;;;;;0.90;0.90;;;-7.10;99.90;;;;;;5075674;28;20195;-71
2023/02/02 02:36:15;;;;;;;0.80;0.80;;;-7.10;99.90;;;;;;5075634;28;20241;-70
2023/02/02 02:39:09;;;;;;;0.80;0.80;;;-7.00;99.90;;;;;;5074038;28;20228;-71
2023/02/02 02:41:45;;;;;;;0.80;0.80;;;-7.00;99.90;;;;;;5086716;28;20196;-71
2023/02/02 02:44:17;;;;;;;0.80;0.80;;;-7.00;99.90;;;;;;5095663;28;20207;-71
2023/02/02 02:46:43;;;;;;;0.83;0.83;;;-6.90;99.90;;;;;;5095668;28;20278;-70
2023/02/02 02:49:16;;;;;;;0.80;0.80;;;-7.00;99.90;;;;;;5094330;28;20207;-69
2023/02/02 02:51:51;;;;;;;0.77;0.77;;;-6.90;99.90;;;;;;5095383;28;20190;-72
2023/02/02 02:54:45;;;;;;;0.93;0.93;;;-6.90;99.90;;;;;;5094209;28;20191;-70
2023/02/02 02:57:59;;;;;;;0.90;0.90;;;-6.90;99.90;;;;;;5092245;28;20246;-71
2023/02/02 03:00:37;;;;;;;0.80;0.80;;;-6.90;99.90;;;;;;5095211;28;20253;-74
2023/02/02 03:03:13;;;;;;;0.80;0.80;;;-6.80;99.90;;;;;;5073442;28;20228;-72
2023/02/02 03:06:05;;;;;;;0.90;0.90;;;-6.80;99.90;;;;;;5074877;28;20666;-72
2023/02/02 03:08:52;;;;;;;0.90;0.90;;;-6.90;99.90;;;;;;5073614;28;20233;-73
2023/02/02 03:11:18;;;;;;;0.90;0.90;;;-6.80;99.90;;;;;;5075641;28;20662;-72
2023/02/02 03:13:47;;;;;;;0.90;0.90;;;-6.80;99.90;;;;;;5074997;28;20206;-72
2023/02/02 03:16:17;;;;;;;0.80;0.80;;;-6.90;99.90;;;;;;5073978;28;20201;-72
2023/02/02 03:18:43;;;;;;;0.90;0.90;;;-6.80;99.90;;;;;;5091839;28;20279;-73
2023/02/02 03:21:09;;;;;;;0.80;0.80;;;-6.80;99.90;;;;;;5093731;28;20199;-72
2023/02/02 03:23:37;;;;;;;0.80;0.80;;;-6.80;99.90;;;;;;5093371;28;20199;-72
2023/02/02 03:26:09;;;;;;;0.80;0.80;;;-6.90;99.90;;;;;;5093680;28;20192;-72
2023/02/02 03:28:35;;;;;;;0.90;0.90;;;-6.80;99.90;;;;;;5093547;28;20288;-74
2023/02/02 03:31:01;;;;;;;0.80;0.80;;;-6.80;99.90;;;;;;5094955;28;20188;-72
2023/02/02 03:33:28;;;;;;;0.90;0.90;;;-6.80;99.90;;;;;;5094824;28;20662;-72
2023/02/02 03:35:54;;;;;;;0.90;0.90;;;-6.80;99.90;;;;;;5093639;28;20229;-72
2023/02/02 03:38:20;;;;;;;0.80;0.80;;;-6.80;99.90;;;;;;5092947;28;20252;-71
2023/02/02 03:40:45;;;;;;;0.70;0.70;;;-6.80;99.90;;;;;;5094783;28;20194;-70
2023/02/02 03:43:22;;;;;;;0.90;0.90;;;-6.80;99.90;;;;;;5093236;28;20820;-71
2023/02/02 03:45:54;;;;;;;1.00;1.00;;;-6.80;99.90;;;;;;5092762;28;20215;-72
2023/02/02 03:48:19;;;;;;;0.80;0.80;;;-6.80;99.90;;;;;;5093300;28;20245;-70
2023/02/02 03:50:45;;;;;;;0.80;0.80;;;-6.80;99.90;;;;;;5094446;28;20188;-70
2023/02/02 03:53:22;;;;;;;0.83;0.83;;;-6.80;99.90;;;;;;5093383;28;20188;-70
2023/02/02 03:55:54;;;;;;;0.90;0.90;;;-6.80;99.90;;;;;;5094593;28;20287;-71
2023/02/02 03:58:21;;;;;;;0.90;0.90;;;-6.80;99.90;;;;;;5093217;28;20192;-71
2023/02/02 04:00:47;;;;;;;0.70;0.70;;;-6.80;99.90;;;;;;5094235;28;20288;-71
2023/02/02 04:03:12;;;;;;;0.90;0.90;;;-6.70;99.90;;;;;;5092694;28;20685;-71
2023/02/02 04:05:38;;;;;;;0.87;0.87;;;-6.70;99.90;;;;;;5092788;28;20291;-72
2023/02/02 04:08:04;;;;;;;0.80;0.80;;;-6.80;99.90;;;;;;5075155;28;20216;-72
2023/02/02 04:10:30;;;;;;;0.90;0.90;;;-6.90;99.90;;;;;;5073806;28;20193;-72
2023/02/02 04:12:56;;;;;;;0.73;0.73;;;-7.00;99.90;;;;;;5073943;28;20509;-71
2023/02/02 04:15:22;;;;;;;1.00;1.00;;;-7.00;99.90;;;;;;5073828;28;20647;-72
2023/02/02 04:17:48;;;;;;;0.87;0.87;;;-7.00;99.90;;;;;;5078666;28;20201;-72
2023/02/02 04:20:13;;;;;;;0.87;0.87;;;-7.20;99.90;;;;;;5072400;28;20197;-71
2023/02/02 04:22:39;;;;;;;0.80;0.80;;;-7.30;99.90;;;;;;5073529;28;20258;-72
2023/02/02 04:25:05;;;;;;;0.80;0.80;;;-7.30;99.90;;;;;;5089190;28;20625;-72
2023/02/02 04:27:32;;;;;;;0.90;0.90;;;-7.30;99.90;;;;;;5073316;28;20564;-72
2023/02/02 04:29:58;;;;;;;0.90;0.90;;;-7.40;99.90;;;;;;5073552;28;20284;-71
2023/02/02 04:32:24;;;;;;;0.77;0.77;;;-7.50;99.90;;;;;;5073260;28;20195;-72
2023/02/02 04:34:50;;;;;;;0.83;0.83;;;-7.40;99.90;;;;;;5088327;28;20204;-71
2023/02/02 04:37:15;;;;;;;0.90;0.90;;;-7.50;99.90;;;;;;5092381;28;20573;-71
2023/02/02 04:39:54;;;;;;;0.70;0.70;;;-7.50;99.90;;;;;;5091882;28;20269;-72
2023/02/02 04:42:19;;;;;;;0.90;0.90;;;-7.40;99.90;;;;;;5093336;28;20329;-71
2023/02/02 04:44:45;;;;;;;0.90;0.90;;;-7.30;99.90;;;;;;5093549;28;20290;-71
2023/02/02 04:47:11;;;;;;;0.73;0.73;;;-7.30;99.90;;;;;;5093692;28;20200;-70
2023/02/02 04:49:37;;;;;;;0.90;0.90;;;-7.30;99.90;;;;;;5091993;28;20200;-70
2023/02/02 04:52:03;;;;;;;0.90;0.90;;;-7.40;99.90;;;;;;5093302;28;20207;-71
2023/02/02 04:54:29;;;;;;;0.90;0.90;;;-7.30;99.90;;;;;;5091956;28;20196;-70
2023/02/02 04:56:54;;;;;;;0.90;0.90;;;-7.30;99.90;;;;;;5091856;28;20198;-70
2023/02/02 04:59:20;;;;;;;0.83;0.83;;;-7.30;99.90;;;;;;5093037;28;20224;-70
2023/02/02 05:01:47;;;;;;;1.00;1.00;;;-7.40;99.90;;;;;;5092955;28;20253;-71
2023/02/02 05:04:13;;;;;;;0.90;0.90;;;-7.40;99.90;;;;;;5093431;28;20230;-71
2023/02/02 05:06:38;;;;;;;0.90;0.90;;;-7.40;99.90;;;;;;5091581;28;20283;-71
2023/02/02 05:09:18;;;;;;;0.90;0.90;;;-7.50;99.90;;;;;;5093384;28;20227;-71
2023/02/02 05:12:04;;;;;;;0.80;0.80;;;-7.60;99.90;;;;;;5092896;28;20650;-71
2023/02/02 05:14:30;;;;;;;1.00;1.00;;;-7.60;99.90;;;;;;5091688;28;20204;-71
2023/02/02 05:17:03;;;;;;;0.90;0.90;;;-7.60;99.90;;;;;;5091423;28;20227;-71
2023/02/02 05:19:32;;;;;;;1.00;1.00;;;-7.50;99.90;;;;;;5092865;28;20207;-71
2023/02/02 05:21:57;;;;;;;0.90;0.90;;;-7.40;99.90;;;;;;5093043;28;20198;-70
2023/02/02 05:24:23;;;;;;;0.90;0.90;;;-7.30;99.90;;;;;;5092548;28;20208;-71
2023/02/02 05:26:49;;;;;;;0.90;0.90;;;-7.40;99.90;;;;;;5092754;28;20650;-70
2023/02/02 05:29:15;;;;;;;0.90;0.90;;;-7.50;99.90;;;;;;5092718;28;20559;-69
2023/02/02 05:31:43;;;;;;;0.80;0.80;;;-7.60;99.90;;;;;;5092643;28;20670;-72
2023/02/02 05:34:10;;;;;;;0.70;0.70;;;-7.60;99.90;;;;;;5091529;28;20546;-71
2023/02/02 05:36:39;;;;;;;0.90;0.90;;;-7.60;99.90;;;;;;5091275;28;20219;-71
2023/02/02 05:39:04;;;;;;;0.90;0.90;;;-7.70;99.90;;;;;;5091521;28;20203;-71
2023/02/02 05:41:30;;;;;;;0.90;0.90;;;-7.80;99.90;;;;;;5091345;28;20204;-73
2023/02/02 05:43:59;;;;;;;0.90;0.90;;;-7.80;99.90;;;;;;5091492;28;20212;-72
2023/02/02 05:46:25;;;;;;;0.80;0.80;;;-7.90;99.90;;;;;;5094928;28;20220;-72
2023/02/02 05:48:50;;;;;;;0.80;0.80;;;-8.00;99.90;;;;;;5096886;28;20288;-71
2023/02/02 05:51:41;;;;;;;0.90;0.90;;;-8.00;99.90;;;;;;5096909;28;20385;-71
2023/02/02 05:54:07;;;;;;;0.90;0.90;;;-8.00;99.90;;;;;;5089721;28;20268;-71
2023/02/02 05:56:33;;;;;;;0.80;0.80;;;-8.00;99.90;;;;;;5096750;28;20199;-71
2023/02/02 05:58:59;;;;;;;0.80;0.80;;;-7.80;99.90;;;;;;5095099;28;20218;-71
2023/02/02 06:01:25;;;;;;;0.90;0.90;;;-7.80;99.90;;;;;;5096132;28;20571;-72
2023/02/02 06:03:50;;;;;;;1.27;1.23;;;-7.90;99.90;;;;;;5096395;28;20227;-71
2023/02/02 06:06:16;;;;;;;1.00;1.00;;;-7.90;99.90;;;;;;5096545;28;20192;-71
2023/02/02 06:08:42;;;;;;;0.90;0.90;;;-8.00;99.90;;;;;;5095155;28;20192;-72
2023/02/02 06:11:16;;;;;;;0.90;0.90;;;-8.10;99.90;;;;;;5096363;28;20191;-72
2023/02/02 06:13:42;;;;;;;1.00;1.00;;;-8.10;99.90;;;;;;5096327;28;20245;-72
2023/02/02 06:16:08;;;;;;;1.10;1.10;;;-8.20;99.90;;;;;;5096460;28;20200;-72
2023/02/02 06:18:34;;;;;;;1.10;1.10;;;-8.20;99.90;;;;;;5091182;28;20655;-71
2023/02/02 06:21:01;;;;;;;1.00;1.00;;;-8.30;99.90;;;;;;5075841;28;20201;-72
2023/02/02 06:23:27;;;;;;;0.90;0.90;;;-8.40;99.90;;;;;;5075859;28;20193;-72
2023/02/02 06:25:53;;;;;;;0.90;0.90;;;-8.30;99.90;;;;;;5080551;28;20630;-72
2023/02/02 06:28:21;;;;;;;0.80;0.80;;;-8.30;99.90;;;;;;5096044;28;20287;-73
2023/02/02 06:30:47;;;;;;;0.90;0.90;;;-8.30;99.90;;;;;;5095952;28;20192;-71
2023/02/02 06:33:16;;;;;;;0.90;0.90;;;-8.30;99.90;;;;;;5096230;28;20192;-71
2023/02/02 06:35:44;;;;;;;0.80;0.80;;;-8.20;99.90;;;;;;5095617;28;20188;-72
2023/02/02 06:38:19;;;;;;;0.90;0.90;;;-8.10;99.90;;;;;;5094583;28;20683;-72
2023/02/02 06:40:54;;;;;;;0.90;0.90;;;-8.00;99.90;;;;;;5096348;28;20187;-71
2023/02/02 06:43:19;;;;;;;0.80;0.80;;;-8.00;99.90;;;;;;5094552;28;20308;-71
2023/02/02 06:45:45;;;;;;;0.70;0.70;;;-7.80;99.90;;;;;;5094580;28;20196;-71
2023/02/02 06:48:20;;;;;;;0.90;0.90;;;-7.70;99.90;;;;;;5095891;28;20196;-71
2023/02/02 06:50:45;;;;;;;0.90;0.90;;;-7.70;99.90;;;;;;5095668;28;20252;-72
2023/02/02 06:53:11;;;;;;;0.90;0.90;;;-7.70;99.90;;;;;;5095585;28;20651;-72
2023/02/02 06:55:37;;;;;;;0.80;0.80;;;-7.70;99.90;;;;;;5095485;28;20219;-72
2023/02/02 06:58:02;;;;;;;0.90;0.90;;;-7.70;99.90;;;;;;5094992;28;20192;-71
2023/02/02 07:00:29;;;;;;;0.90;0.90;;;-7.60;99.90;;;;;;5095651;28;20663;-72
2023/02/02 07:02:55;;;;;;;0.80;0.80;;;-7.60;99.90;;;;;;5093933;28;20243;-71
2023/02/02 07:05:22;;;;;;;0.87;0.87;;;-7.70;99.90;;;;;;5095197;28;20601;-71
2023/02/02 07:07:52;;;;;;;0.73;0.73;;;-7.80;99.90;;;;;;5094075;28;20204;-71
2023/02/02 07:10:18;;;;;;;0.70;0.70;;;-7.70;99.90;;;;;;5094391;28;20279;-71
2023/02/02 07:12:44;;;;;;;0.80;0.80;;;-7.80;99.90;;;;;;5095390;28;20216;-72
2023/02/02 07:15:15;;;;;;;0.97;0.97;;;-7.80;99.90;;;;;;5095406;28;20195;-71
2023/02/02 07:17:41;;;;;;;1.00;1.00;;;-7.90;99.90;;;;;;5090642;28;20224;-71
2023/02/02 07:20:30;;;;;;;1.00;1.00;;;-7.80;99.90;;;;;;5075269;28;20620;-71
2023/02/02 07:22:56;;;;;;;0.80;0.80;;;-7.80;99.90;;;;;;5085777;28;20206;-71
2023/02/02 07:25:22;;;;;;;0.80;0.80;;;-7.80;99.90;;;;;;5094996;28;20286;-72
2023/02/02 07:27:54;;;;;;;0.87;0.87;;;-7.60;99.90;;;;;;5093901;28;20730;-71
2023/02/02 07:30:32;;;;;;;0.87;0.87;;;-7.40;99.90;;;;;;5094934;28;20204;-72
2023/02/02 07:33:06;;;;;;;0.90;0.90;;;-7.40;99.90;;;;;;5095190;28;20684;-71
2023/02/02 07:35:32;;;;;;;0.80;0.80;;;-7.30;99.90;;;;;;5094688;28;20316;-71
2023/02/02 07:37:58;;;;;;;0.87;0.87;;;-7.30;99.90;;;;;;5094901;28;20193;-71
2023/02/02 07:40:24;;;;;;;0.83;0.83;;;-7.30;99.90;;;;;;5093372;28;20200;-72
2023/02/02 07:43:11;;;;;;;0.80;0.80;;;-7.40;99.90;;;;;;5093690;28;20199;-71
2023/02/02 07:45:40;;;;;;;0.80;0.80;;;-7.50;99.90;;;;;;5093286;28;20211;-71
2023/02/02 07:48:09;;;;;;;0.80;0.80;;;-7.50;99.90;;;;;;5093711;28;20188;-71
2023/02/02 07:50:35;;;;;;;1.00;1.00;;;-7.60;99.90;;;;;;5092715;28;20244;-72
2023/02/02 07:53:00;;;;;;;0.70;0.70;;;-7.60;99.90;;;;;;5093074;28;20320;-71
2023/02/02 07:55:26;;;;;;;1.00;1.00;;;-7.60;99.90;;;;;;5094522;28;20557;-71
2023/02/02 07:57:54;;;;;;;1.10;1.10;;;-7.70;99.90;;;;;;5094469;28;20281;-71
2023/02/02 08:00:20;;;;;;;2.00;1.60;;;-7.60;99.90;;;;;;5094473;28;20192;-71
2023/02/02 08:02:54;;;;;;;1.00;1.00;;;-7.60;99.90;;;;;;5093983;28;20227;-71
2023/02/02 08:05:21;;;;;;;0.90;0.90;;;-7.50;99.90;;;;;;5093112;28;20218;-72
2023/02/02 08:07:50;;;;;;;1.00;1.00;;;-7.40;99.90;;;;;;5094283;28;20180;-70
2023/02/02 08:10:16;;;;;;;1.40;1.30;;;-7.40;99.90;;;;;;5094087;28;20192;-71
2023/02/02 08:12:44;;;;;;;0.80;0.80;;;-7.30;99.90;;;;;;5093966;28;20553;-72
2023/02/02 08:15:11;;;;;;;0.90;0.90;;;-7.10;99.90;;;;;;5094264;28;20229;-71
2023/02/02 08:17:37;;;;;;;1.37;1.27;;;-7.10;99.90;;;;;;5088857;28;20284;-71
2023/02/02 08:20:12;;;;;;;0.90;0.90;;;-7.10;99.90;;;;;;5092276;28;20291;-71
2023/02/02 08:22:38;;;;;;;0.80;0.80;;;-7.00;99.90;;;;;;5093756;28;20731;-73
2023/02/02 08:25:07;;;;;;;0.90;0.90;;;-6.80;99.90;;;;;;5093958;28;20222;-72
2023/02/02 08:27:45;;;;;;;0.90;0.90;;;-6.70;99.90;;;;;;5091529;28;20208;-73
2023/02/02 08:30:17;;;;;;;0.90;0.90;;;-6.60;99.90;;;;;;5093119;28;20196;-72
2023/02/02 08:32:48;;;;;;;2.37;2.17;;;-6.60;99.90;;;;;;5093830;28;20199;-72
2023/02/02 08:35:15;;;;;;;0.80;0.80;;;-6.50;99.90;;;;;;5092873;28;20200;-72
2023/02/02 08:37:52;;;;;;;0.90;0.90;;;-6.40;99.90;;;;;;5091058;28;20218;-72
2023/02/02 08:40:18;;;;;;;0.80;0.80;;;-6.30;99.90;;;;;;5092570;28;20261;-72
2023/02/02 08:42:46;;;;;;;0.90;0.90;;;-6.30;99.90;;;;;;5093786;28;20192;-72
2023/02/02 08:45:12;;;;;;;0.80;0.80;;;-6.20;99.90;;;;;;5094183;28;20253;-72
2023/02/02 08:47:37;;;;;;;0.90;0.90;;;-6.20;99.90;;;;;;5088552;28;20590;-72
2023/02/02 08:50:03;;;;;;;0.80;0.80;;;-6.10;99.90;;;;;;5073590;28;20189;-72
2023/02/02 08:52:29;;;;;;;0.90;0.90;;;-6.10;99.90;;;;;;5071785;28;20189;-72
2023/02/02 08:54:58;;;;;;;0.83;0.83;;;-6.00;99.90;;;;;;5073487;28;20616;-72
2023/02/02 08:57:27;;;;;;;0.90;0.90;;;-5.90;99.90;;;;;;5073166;28;20542;-71
2023/02/02 08:59:56;;;;;;;0.80;0.80;;;-5.80;99.90;;;;;;5073421;28;20204;-72
2023/02/02 09:02:21;;;;;;;1.37;1.10;;;-5.80;99.90;;;;;;5072745;28;20236;-71
2023/02/02 09:05:13;;;;;;;0.90;0.90;;;-5.60;99.90;;;;;;5072842;28;20655;-72
2023/02/02 09:07:39;;;;;;;0.90;0.90;;;-5.50;99.90;;;;;;5048652;28;20216;-72
2023/02/02 09:10:11;;;;;;;0.87;0.87;;;-5.50;99.90;;;;;;5071694;28;20199;-72
2023/02/02 09:12:46;;;;;;;0.90;0.90;;;-5.40;99.90;;;;;;5071262;28;20674;-74
2023/02/02 09:15:12;;;;;;;0.80;0.80;;;-5.30;99.90;;;;;;5083400;28;20622;-72
2023/02/02 09:17:44;;;;;;;0.90;0.90;;;-5.10;99.90;;;;;;5092806;28;20257;-72
2023/02/02 09:20:12;;;;;;;0.80;0.80;;;-5.10;99.90;;;;;;5092839;28;20658;-72
2023/02/02 09:22:38;;;;;;;1.93;1.83;;;-5.00;99.90;;;;;;5092972;28;20322;-73
2023/02/02 09:25:04;;;;;;;2.20;1.90;;;-4.90;99.90;;;;;;5091619;28;20799;-72
2023/02/02 09:27:35;;;;;;;0.83;0.83;;;-4.90;99.90;;;;;;5092879;28;20212;-73
2023/02/02 09:30:08;;;;;;;0.77;0.77;;;-4.70;99.90;;;;;;5093284;28;20199;-71
2023/02/02 09:32:42;;;;;;;0.80;0.80;;;-4.70;99.90;;;;;;5092904;28;20275;-73
2023/02/02 09:35:08;;;;;;;0.90;0.90;;;-4.50;99.90;;;;;;5092087;28;20649;-72
2023/02/02 09:37:34;;;;;;;0.87;0.87;;;-4.40;99.90;;;;;;5091408;28;20198;-72
2023/02/02 09:40:00;;;;;;;0.90;0.90;;;-4.20;99.90;;;;;;5091687;28;20200;-73
2023/02/02 09:43:00;;;;;;;0.90;0.90;;;-4.10;99.90;;;;;;5092421;28;20584;-71
2023/02/02 09:45:58;;;;;;;0.80;0.80;;;-3.90;99.90;;;;;;5093442;28;20500;-73
2023/02/02 09:48:52;;;;;;;0.70;0.70;;;-3.60;99.90;;;;;;5092815;28;20327;-72
2023/02/02 09:51:45;;;;;;;0.70;0.70;;;-3.40;99.90;;;;;;5087846;28;20566;-72
2023/02/02 09:54:32;;;;;;;0.70;0.70;;;-3.20;99.90;;;;;;5092185;28;20231;-72
2023/02/02 09:57:03;;;;;;;0.75;0.75;;;-3.10;99.90;;;;;;5091586;28;20693;-71
2023/02/02 09:59:43;;;;;;;0.70;0.70;;;-2.90;99.90;;;;;;5092633;28;20188;-71
2023/02/02 10:02:23;;;;;;;0.77;0.77;;;-2.70;99.90;;;;;;5092376;28;20207;-70
2023/02/02 10:04:55;;;;;;;0.73;0.73;;;-2.60;99.90;;;;;;5093040;28;20208;-71
2023/02/02 10:07:31;;;;;;;0.70;0.70;;;-2.50;99.90;;;;;;5091119;28;20749;-71
2023/02/02 10:10:14;;;;;;;0.80;0.80;;;-2.40;99.90;;;;;;5091318;28;20196;-71
2023/02/02 10:13:01;;;;;;;0.70;0.70;;;-2.20;99.90;;;;;;5070765;28;20287;-71
2023/02/02 10:15:53;;;;;;;0.73;0.73;;;-2.10;99.90;;;;;;5071244;28;20287;-74
2023/02/02 10:18:28;;;;;;;0.70;0.70;;;-2.00;99.90;;;;;;5086674;28;20239;-73
2023/02/02 10:21:32;;;;;;;0.80;0.80;;;-1.90;99.90;;;;;;5092747;28;20227;-71
2023/02/02 10:24:24;;;;;;;0.60;0.60;;;-1.80;99.90;;;;;;5092056;28;20192;-74
2023/02/02 10:27:27;;;;;;;0.80;0.80;;;-1.80;99.90;;;;;;5091409;28;20197;-74
2023/02/02 10:33:38;;;;;;;0.80;0.80;;;-1.50;99.90;;;;;;5053198;28;20212;-72
2023/02/02 10:47:03;;;;;;;0.60;0.60;;;-1.50;99.90;;;;;;5076092;28;20702;-71
2023/02/02 10:53:52;;;;;;;0.70;0.70;;;-1.30;99.90;;;;;;4996767;28;20206;-73
2023/02/02 11:00:19;;;;;;;0.68;0.68;;;-0.90;99.90;;;;;;5086719;28;20553;-72
2023/02/02 11:13:02;;;;;;;0.60;0.60;;;-0.40;99.90;;;;;;4993072;28;20677;-72
2023/02/02 11:16:09;;;;;;;0.70;0.70;;;-0.40;99.90;;;;;;4955680;28;20208;-72
2023/02/02 11:19:14;;;;;;;0.68;0.68;;;-0.50;99.90;;;;;;5038952;28;20205;-72
2023/02/02 11:22:18;;;;;;;;;;;;;;;;;;;;;
2023/02/02 11:25:20;;;;;;;0.68;0.68;;;-0.70;99.90;;;;;;5013141;28;20226;-72
2023/02/02 11:28:23;;;;;;;0.75;0.75;;;-0.80;99.90;;;;;;4993607;28;20199;-71
2023/02/02 11:31:43;;;;;;;0.60;0.60;;;-0.60;99.90;;;;;;4993483;28;20207;-72
2023/02/02 11:38:06;;;;;;;;;;;;;;;;;;;;;
2023/02/02 12:01:28;;;;;;;0.70;0.70;;;-1.40;99.90;;;;;;4897585;29;20238;-73
2023/02/02 12:14:45;;;;;;;0.80;0.80;;;-1.40;99.90;;;;;;4916043;29;20249;-74
2023/02/02 12:20:58;;;;;;;0.70;0.70;;;-1.40;99.90;;;;;;4897950;29;20255;-73
2023/02/02 12:23:45;;;;;;;0.70;0.70;;;-1.50;99.90;;;;;;4915711;29;20210;-74
2023/02/02 12:34:03;;;;;;;0.60;0.60;;;-2.30;99.90;;;;;;4918309;29;20216;-73
2023/02/02 12:36:50;;;;;;;0.70;0.70;;;-2.30;99.90;;;;;;4935226;28;20198;-73
2023/02/02 12:39:56;;;;;;;0.70;0.70;;;-2.40;99.90;;;;;;4972013;28;20211;-75
2023/02/02 12:43:03;;;;;;;0.50;0.50;;;-2.40;99.90;;;;;;4972053;28;20207;-75
2023/02/02 12:52:54;;;;;;;0.70;0.70;;;-2.50;99.90;;;;;;4991950;28;20203;-75
2023/02/02 12:55:54;;;;;;;0.60;0.60;;;-2.50;99.90;;;;;;5009816;28;20575;-76
2023/02/02 12:59:13;;;;;;;0.63;0.63;;;-2.40;99.90;;;;;;5011624;28;20207;-75
2023/02/02 13:23:49;;;;;;;0.80;0.80;;;-3.30;99.90;;;;;;4991913;28;20748;-75
2023/02/02 13:26:54;;;;;;;0.70;0.70;;;-3.40;99.90;;;;;;4971740;28;20226;-75
2023/02/02 13:30:14;;;;;;;0.63;0.63;;;-3.40;99.90;;;;;;4987203;28;20226;-76
2023/02/02 13:33:12;;;;;;;0.70;0.70;;;-3.30;99.90;;;;;;4976473;28;20290;-75
2023/02/02 13:36:34;;;;;;;;;;;;;;;;;;;;;
2023/02/02 13:49:28;;;;;;;0.70;0.70;;;-3.70;99.90;;;;;;5011436;28;20585;-74
2023/02/02 13:59:02;;;;;;;0.80;0.80;;;-4.20;99.90;;;;;;5088624;28;20581;-76
2023/02/02 14:02:19;;;;;;;0.80;0.80;;;-4.30;99.90;;;;;;5092920;28;20223;-75
2023/02/02 14:09:27;;;;;;;0.80;0.80;;;-4.50;99.90;;;;;;5095002;28;20863;-75
2023/02/02 14:12:26;;;;;;;0.70;0.70;;;-4.60;99.90;;;;;;5034096;28;20214;-74
2023/02/02 14:18:34;;;;;;;0.80;0.80;;;-4.70;99.90;;;;;;5034642;28;20404;-75
2023/02/02 14:25:13;;;;;;;0.73;0.73;;;-5.00;99.90;;;;;;4992109;28;20826;-74
2023/02/02 14:32:27;;;;;;;0.90;0.90;;;-4.90;99.90;;;;;;4917332;29;20235;-74
2023/02/02 14:35:34;;;;;;;;;;;;;;;;;;;;;
2023/02/02 14:52:00;;;;;;;0.80;0.80;;;-5.30;99.90;;;;;;4898203;29;20722;-74
2023/02/02 14:54:58;;;;;;;0.80;0.80;;;-5.30;99.90;;;;;;4879548;29;20211;-74
2023/02/02 14:58:08;;;;;;;0.80;0.80;;;-5.40;99.90;;;;;;4864546;29;20226;-74
2023/02/02 15:01:20;;;;;;;;;;;;;;;;;;;;;
2023/02/02 15:04:16;;;;;;;0.80;0.80;;;-5.50;99.90;;;;;;4897812;29;20221;-74
2023/02/02 15:06:52;;;;;;;0.93;0.93;;;-5.60;99.90;;;;;;4913325;29;20231;-74
2023/02/02 15:13:23;;;;;;;;;;;;;;;;;;;;;
2023/02/02 15:16:43;;;;;;;0.70;0.70;;;-5.70;99.90;;;;;;4841159;29;20312;-75
2023/02/02 15:23:21;;;;;;;0.83;0.83;;;-5.80;99.90;;;;;;4860522;29;20224;-74
2023/02/02 15:26:23;;;;;;;0.80;0.80;;;-5.90;99.90;;;;;;4891036;29;20310;-74
2023/02/02 15:36:00;;;;;;;0.80;0.80;;;-6.10;99.90;;;;;;4856356;29;20667;-73
2023/02/02 15:39:32;;;;;;;0.70;0.70;;;-6.20;99.90;;;;;;4823948;29;20206;-74
2023/02/02 15:59:44;;;;;;;0.80;0.80;;;-6.40;99.90;;;;;;4820356;29;20221;-74
2023/02/02 16:02:19;;;;;;;0.87;0.87;;;-6.50;99.90;;;;;;4872834;29;20203;-74
2023/02/02 16:04:45;;;;;;;0.80;0.80;;;-6.50;99.90;;;;;;4879201;29;20227;-74
2023/02/02 16:07:21;;;;;;;0.80;0.80;;;-6.60;99.90;;;;;;4848204;29;20258;-74
2023/02/02 16:09:47;;;;;;;0.70;0.70;;;-6.60;99.90;;;;;;4897472;29;20210;-71
2023/02/02 16:12:17;;;;;;;0.90;0.90;;;-6.60;99.90;;;;;;4945566;28;20354;-72
2023/02/02 16:14:47;;;;;;;0.73;0.73;;;-6.60;99.90;;;;;;4992820;28;20235;-74
2023/02/02 16:17:22;;;;;;;0.83;0.83;;;-6.60;99.90;;;;;;4976474;28;20254;-74
2023/02/02 16:20:22;;;;;;;0.90;0.90;;;-6.70;99.90;;;;;;4993109;28;20553;-73
2023/02/02 16:22:51;;;;;;;0.80;0.80;;;-6.70;99.90;;;;;;4977669;28;20227;-74
2023/02/02 16:25:20;;;;;;;0.80;0.80;;;-6.80;99.90;;;;;;5065394;28;20221;-73
2023/02/02 16:27:48;;;;;;;0.80;0.80;;;-6.80;99.90;;;;;;5074192;28;20188;-74
2023/02/02 16:30:37;;;;;;;0.90;0.90;;;-6.90;99.90;;;;;;5073194;28;20538;-74
2023/02/02 16:33:39;;;;;;;0.80;0.80;;;-7.00;99.90;;;;;;5074327;28;20270;-74
2023/02/02 16:36:34;;;;;;;0.80;0.80;;;-7.00;99.90;;;;;;5056101;28;20227;-74
2023/02/02 16:39:00;;;;;;;0.80;0.80;;;-7.00;99.90;;;;;;5056613;28;20664;-74
2023/02/02 16:41:28;;;;;;;0.80;0.80;;;-7.00;99.90;;;;;;5055763;28;20197;-74
2023/02/02 16:43:54;;;;;;;0.80;0.80;;;-7.00;99.90;;;;;;5073758;28;20673;-74
2023/02/02 16:46:50;;;;;;;0.80;0.80;;;-7.00;99.90;;;;;;5093473;28;20196;-74